Time;durP1;ratioP1;P1;durP2;ratioP2;P2;SDS_P1;SDS_P2;PMS_P1;PMS_P2;Temp;Humidity;BMP_temperature;BMP_pressure;BME280_temperature;BME280_humidity;BME280_pressure;Samples;Min_cycle;Max_cycle;Signal;HPM_P1;HPM_P2
2022/10/17 05:06:27;;;;;;;;;46.25;40.75;;;;;;;;5936029;39;10000423;-59
2022/10/17 05:13:34;;;;;;;;;55.00;45.00;;;;;;;;6463611;38;52149;-59
2022/10/17 05:19:37;;;;;;;;;66.75;54.50;;;;;;;;6501556;38;8922;-60
2022/10/17 05:25:42;;;;;;;;;64.25;53.25;;;;;;;;6502039;31;8976;-59
2022/10/17 05:31:45;;;;;;;;;60.50;50.50;;;;;;;;6501997;31;8965;-61
2022/10/17 05:37:47;;;;;;;;;61.00;52.25;;;;;;;;6502154;38;8860;-60
2022/10/17 05:43:51;;;;;;;;;59.50;46.75;;;;;;;;6501406;38;8933;-60
2022/10/17 05:50:02;;;;;;;;;52.25;44.25;;;;;;;;6500784;46;9005;-60
2022/10/17 05:56:19;;;;;;;;;59.25;47.00;;;;;;;;6502378;38;8827;-60
2022/10/17 06:02:24;;;;;;;;;57.50;48.00;;;;;;;;6499936;38;8919;-59
2022/10/17 06:08:29;;;;;;;;;49.50;42.50;;;;;;;;6501962;36;8880;-59
2022/10/17 06:14:33;;;;;;;;;37.50;34.75;;;;;;;;6500586;31;8898;-59
2022/10/17 06:20:38;;;;;;;;;48.50;43.75;;;;;;;;6496612;46;8848;-58
2022/10/17 06:26:49;;;;;;;;;34.00;31.00;;;;;;;;6491099;46;8906;-60
2022/10/17 06:32:55;;;;;;;;;48.50;41.25;;;;;;;;6487980;39;8915;-59
2022/10/17 06:38:58;;;;;;;;;43.50;39.50;;;;;;;;6487769;46;8905;-60
2022/10/17 06:45:12;;;;;;;;;47.25;42.25;;;;;;;;6487495;46;8872;-60
2022/10/17 06:51:27;;;;;;;;;48.00;42.75;;;;;;;;6486969;46;9011;-62
2022/10/17 06:57:31;;;;;;;;;44.00;38.50;;;;;;;;6489160;46;8856;-60
2022/10/17 07:03:54;;;;;;;;;41.00;39.25;;;;;;;;6488465;39;8932;-60
2022/10/17 07:10:07;;;;;;;;;52.50;46.00;;;;;;;;6489803;39;8966;-59
2022/10/17 07:16:12;;;;;;;;;35.75;31.00;;;;;;;;6487324;31;8945;-60
2022/10/17 07:22:17;;;;;;;;;38.00;37.50;;;;;;;;6488299;32;8812;-60
2022/10/17 07:28:23;;;;;;;;;38.25;37.75;;;;;;;;6487790;39;8925;-60
2022/10/17 07:34:33;;;;;;;;;42.50;40.75;;;;;;;;6487339;31;8852;-60
2022/10/17 07:40:37;;;;;;;;;42.50;40.25;;;;;;;;6488777;39;8874;-60
2022/10/17 07:46:41;;;;;;;;;38.00;33.25;;;;;;;;6488035;31;8950;-60
2022/10/17 07:52:46;;;;;;;;;39.50;37.50;;;;;;;;6486935;39;9616;-60
2022/10/17 07:58:49;;;;;;;;;35.75;34.75;;;;;;;;6488635;31;8954;-61
2022/10/17 08:04:52;;;;;;;;;32.25;30.25;;;;;;;;6487647;39;8862;-61
2022/10/17 08:11:01;;;;;;;;;35.00;30.75;;;;;;;;6488960;39;8993;-58
2022/10/17 08:17:05;;;;;;;;;29.75;29.75;;;;;;;;6487768;39;8862;-60
2022/10/17 08:23:08;;;;;;;;;28.67;27.00;;;;;;;;6487209;39;8910;-61
2022/10/17 08:29:14;;;;;;;;;20.67;20.00;;;;;;;;6487169;46;8874;-59
2022/10/17 08:35:24;;;;;;;;;27.00;26.67;;;;;;;;6486915;39;8860;-60
2022/10/17 08:42:02;;;;;;;;;29.50;27.00;;;;;;;;6486255;46;8981;-59
2022/10/17 08:48:11;;;;;;;;;34.00;29.00;;;;;;;;6487140;39;9879;-60
2022/10/17 08:54:44;;;;;;;;;21.00;21.00;;;;;;;;6485217;39;8918;-60
2022/10/17 09:01:05;;;;;;;;;23.50;22.50;;;;;;;;6486615;39;9012;-60
2022/10/17 09:07:32;;;;;;;;;32.67;28.33;;;;;;;;6486304;39;8965;-61
2022/10/17 09:14:18;;;;;;;;;28.67;27.67;;;;;;;;6487900;31;8919;-60
2022/10/17 09:20:29;;;;;;;;;39.33;30.33;;;;;;;;6487321;47;8938;-60
2022/10/17 09:26:31;;;;;;;;;27.00;24.67;;;;;;;;6486375;39;8916;-60
2022/10/17 09:32:33;;;;;;;;;20.67;18.33;;;;;;;;6487993;36;9906;-60
2022/10/17 09:38:56;;;;;;;;;14.00;14.00;;;;;;;;6486818;31;8913;-61
2022/10/17 09:45:09;;;;;;;;;16.00;16.00;;;;;;;;6484011;47;8886;-59
2022/10/17 09:51:15;;;;;;;;;17.33;16.00;;;;;;;;6485703;31;8903;-60
2022/10/17 09:57:29;;;;;;;;;17.00;13.67;;;;;;;;6486106;46;9010;-61
2022/10/17 10:03:31;;;;;;;;;11.33;11.33;;;;;;;;6487749;39;9485;-59
2022/10/17 10:09:38;;;;;;;;;15.00;14.33;;;;;;;;6487587;39;8991;-59
2022/10/17 10:15:49;;;;;;;;;13.00;13.00;;;;;;;;6488871;39;8832;-59
2022/10/17 10:21:58;;;;;;;;;16.67;14.67;;;;;;;;6488464;46;8952;-60
2022/10/17 10:28:09;;;;;;;;;19.33;17.00;;;;;;;;6489192;39;8934;-60
2022/10/17 10:34:17;;;;;;;;;22.00;21.67;;;;;;;;6489909;31;8864;-60
2022/10/17 10:40:46;;;;;;;;;16.00;14.67;;;;;;;;6490707;46;9030;-62
2022/10/17 10:47:28;;;;;;;;;23.33;21.00;;;;;;;;6490439;46;10099;-60
2022/10/17 10:53:44;;;;;;;;;21.67;21.00;;;;;;;;6488638;46;8899;-60
2022/10/17 11:00:05;;;;;;;;;20.00;19.33;;;;;;;;6488219;31;8865;-63
2022/10/17 11:06:28;;;;;;;;;27.33;25.33;;;;;;;;6488229;39;8855;-61
2022/10/17 11:12:37;;;;;;;;;29.67;27.67;;;;;;;;6489573;31;9059;-60
2022/10/17 11:18:51;;;;;;;;;22.33;21.33;;;;;;;;6488612;39;8910;-59
2022/10/17 11:25:13;;;;;;;;;17.33;16.00;;;;;;;;6487952;39;8909;-61
2022/10/17 11:31:17;;;;;;;;;21.00;18.67;;;;;;;;6486617;39;8997;-61
2022/10/17 11:37:28;;;;;;;;;27.00;22.67;;;;;;;;6488787;36;8922;-59
2022/10/17 11:43:40;;;;;;;;;18.67;18.67;;;;;;;;6488965;31;9085;-59
2022/10/17 11:50:10;;;;;;;;;19.67;18.00;;;;;;;;6487317;39;8936;-59
2022/10/17 11:56:51;;;;;;;;;22.33;19.00;;;;;;;;6487323;46;8900;-59
2022/10/17 12:03:03;;;;;;;;;19.67;18.67;;;;;;;;6515850;36;8868;-59
2022/10/17 12:09:11;;;;;;;;;16.33;16.33;;;;;;;;6487354;39;8891;-60
2022/10/17 12:15:19;;;;;;;;;27.33;23.33;;;;;;;;6486315;46;8888;-60
2022/10/17 12:21:21;;;;;;;;;15.00;15.00;;;;;;;;6488029;39;9110;-60
2022/10/17 12:27:46;;;;;;;;;15.67;15.67;;;;;;;;6487787;31;8885;-60
2022/10/17 12:33:57;;;;;;;;;16.67;15.33;;;;;;;;6487013;46;8864;-60
2022/10/17 12:39:59;;;;;;;;;16.67;15.67;;;;;;;;6487810;31;8910;-59
2022/10/17 12:46:03;;;;;;;;;27.33;25.33;;;;;;;;6487247;39;8903;-60
2022/10/17 12:52:14;;;;;;;;;19.33;17.00;;;;;;;;6487916;39;8866;-59
2022/10/17 12:58:17;;;;;;;;;17.00;17.00;;;;;;;;6487176;47;8833;-59
2022/10/17 13:04:22;;;;;;;;;22.67;20.67;;;;;;;;6485583;39;8909;-61
2022/10/17 13:10:29;;;;;;;;;17.00;14.00;;;;;;;;6487445;47;8941;-61
2022/10/17 13:16:31;;;;;;;;;19.00;15.67;;;;;;;;6486764;47;8909;-61
2022/10/17 13:22:34;;;;;;;;;18.00;15.00;;;;;;;;6487983;39;8810;-59
2022/10/17 13:28:36;;;;;;;;;18.33;14.67;;;;;;;;6487081;39;8913;-60
2022/10/17 13:34:40;;;;;;;;;22.33;20.67;;;;;;;;6489380;31;8965;-60
2022/10/17 13:40:43;;;;;;;;;42.50;36.50;;;;;;;;6488953;39;8922;-59
2022/10/17 13:46:51;;;;;;;;;51.33;42.00;;;;;;;;6490540;39;8967;-60
2022/10/17 13:53:18;;;;;;;;;16.00;16.00;;;;;;;;6488634;39;9589;-59
2022/10/17 13:59:24;;;;;;;;;17.67;17.33;;;;;;;;6488909;39;8943;-59
2022/10/17 14:05:26;;;;;;;;;17.67;15.67;;;;;;;;6490735;46;8911;-62
2022/10/17 14:11:39;;;;;;;;;19.00;17.67;;;;;;;;6491741;39;8849;-59
2022/10/17 14:17:44;;;;;;;;;17.00;16.67;;;;;;;;6491335;39;8834;-60
2022/10/17 14:23:51;;;;;;;;;14.00;14.00;;;;;;;;6492162;39;8995;-60
2022/10/17 14:29:59;;;;;;;;;19.67;19.67;;;;;;;;6492362;31;8952;-60
2022/10/17 14:36:04;;;;;;;;;19.33;18.67;;;;;;;;6492011;39;8857;-60
2022/10/17 14:42:19;;;;;;;;;18.67;18.67;;;;;;;;6491316;39;8902;-59
2022/10/17 14:48:23;;;;;;;;;19.33;18.00;;;;;;;;6491955;39;8852;-59
2022/10/17 14:54:28;;;;;;;;;28.33;26.00;;;;;;;;6492034;39;8858;-60
2022/10/17 15:00:30;;;;;;;;;23.33;21.00;;;;;;;;6491113;39;8951;-60
2022/10/17 15:06:33;;;;;;;;;18.67;18.67;;;;;;;;6491953;46;8965;-60
2022/10/17 15:12:36;;;;;;;;;20.00;18.67;;;;;;;;6491211;46;9007;-59
2022/10/17 15:18:38;;;;;;;;;29.67;25.33;;;;;;;;6491351;46;9104;-60
2022/10/17 15:24:41;;;;;;;;;29.33;29.33;;;;;;;;6493144;31;8853;-60
2022/10/17 15:30:43;;;;;;;;;23.67;22.33;;;;;;;;6491058;46;8922;-59
2022/10/17 15:36:50;;;;;;;;;27.33;23.33;;;;;;;;6491576;46;8837;-58
2022/10/17 15:42:52;;;;;;;;;28.33;24.67;;;;;;;;6491347;39;8930;-59
2022/10/17 15:48:55;;;;;;;;;27.33;25.67;;;;;;;;6490758;46;8905;-60
2022/10/17 15:54:57;;;;;;;;;28.33;25.00;;;;;;;;6491348;31;8871;-59
2022/10/17 16:01:05;;;;;;;;;30.00;25.67;;;;;;;;6489577;46;8833;-59
2022/10/17 16:07:08;;;;;;;;;24.00;22.25;;;;;;;;6492333;39;9487;-59
2022/10/17 16:13:17;;;;;;;;;41.25;36.75;;;;;;;;6490384;39;8925;-58
2022/10/17 16:19:19;;;;;;;;;34.75;33.25;;;;;;;;6491105;39;9049;-59
2022/10/17 16:25:27;;;;;;;;;37.50;34.00;;;;;;;;6491492;31;9147;-60
2022/10/17 16:31:38;;;;;;;;;39.25;36.00;;;;;;;;6490969;31;8924;-59
2022/10/17 16:37:40;;;;;;;;;37.75;36.00;;;;;;;;6491867;39;8805;-58
2022/10/17 16:43:44;;;;;;;;;43.25;39.25;;;;;;;;6489657;46;9005;-58
2022/10/17 16:49:47;;;;;;;;;40.50;38.25;;;;;;;;6489130;39;8881;-59
2022/10/17 16:56:03;;;;;;;;;52.75;43.75;;;;;;;;6489812;39;8882;-59
2022/10/17 17:02:05;;;;;;;;;56.50;45.00;;;;;;;;6488184;47;9039;-58
2022/10/17 17:08:07;;;;;;;;;62.25;47.25;;;;;;;;6488770;46;8862;-60
2022/10/17 17:14:13;;;;;;;;;62.75;51.00;;;;;;;;6488545;47;8901;-59
2022/10/17 17:20:15;;;;;;;;;58.25;45.50;;;;;;;;6488321;39;8874;-58
2022/10/17 17:26:21;;;;;;;;;57.00;46.50;;;;;;;;6488676;39;8865;-59
2022/10/17 17:32:23;;;;;;;;;63.00;51.75;;;;;;;;6488124;39;9633;-60
2022/10/17 17:38:30;;;;;;;;;77.50;60.75;;;;;;;;6488766;31;8909;-58
2022/10/17 17:44:33;;;;;;;;;67.75;54.00;;;;;;;;6488431;47;8874;-59
2022/10/17 17:50:36;;;;;;;;;63.00;51.25;;;;;;;;6487633;47;8885;-59
2022/10/17 17:56:38;;;;;;;;;65.50;53.00;;;;;;;;6487816;39;8890;-59
2022/10/17 18:02:40;;;;;;;;;65.25;51.50;;;;;;;;6488354;31;8897;-58
2022/10/17 18:08:56;;;;;;;;;63.25;52.50;;;;;;;;6488605;39;8924;-60
2022/10/17 18:15:02;;;;;;;;;59.25;48.50;;;;;;;;6487735;46;8923;-59
2022/10/17 18:21:07;;;;;;;;;62.75;53.00;;;;;;;;6490141;39;8938;-57
2022/10/17 18:27:11;;;;;;;;;63.50;52.25;;;;;;;;6489715;39;8889;-59
2022/10/17 18:33:16;;;;;;;;;65.50;51.25;;;;;;;;6489440;39;9020;-59
2022/10/17 18:39:19;;;;;;;;;65.75;52.75;;;;;;;;6489823;46;8965;-59
2022/10/17 18:45:22;;;;;;;;;61.25;51.25;;;;;;;;6490468;39;8850;-59
2022/10/17 18:51:25;;;;;;;;;67.50;54.25;;;;;;;;6490212;39;9016;-57
2022/10/17 18:57:27;;;;;;;;;70.00;55.00;;;;;;;;6489770;39;9526;-58
2022/10/17 19:03:30;;;;;;;;;67.25;55.75;;;;;;;;6489846;39;8908;-59
2022/10/17 19:09:33;;;;;;;;;59.25;49.25;;;;;;;;6490340;39;8965;-60
2022/10/17 19:15:35;;;;;;;;;63.75;52.75;;;;;;;;6489567;31;8889;-58
2022/10/17 19:21:38;;;;;;;;;74.00;58.50;;;;;;;;6489823;46;8969;-60
2022/10/17 19:27:41;;;;;;;;;72.75;56.50;;;;;;;;6489282;46;8888;-58
2022/10/17 19:33:43;;;;;;;;;69.25;54.00;;;;;;;;6488959;39;8926;-59
2022/10/17 19:39:47;;;;;;;;;70.00;57.25;;;;;;;;6489411;31;9016;-59
2022/10/17 19:46:00;;;;;;;;;73.00;57.50;;;;;;;;6488863;46;8890;-58
2022/10/17 19:52:02;;;;;;;;;67.75;53.50;;;;;;;;6489315;31;8929;-59
2022/10/17 19:58:05;;;;;;;;;66.00;52.50;;;;;;;;6488728;36;8871;-58
2022/10/17 20:04:09;;;;;;;;;62.50;51.75;;;;;;;;6488912;31;9040;-59
2022/10/17 20:10:13;;;;;;;;;63.25;51.50;;;;;;;;6488781;39;9073;-59
2022/10/17 20:16:22;;;;;;;;;78.25;61.50;;;;;;;;6488331;31;8885;-59
2022/10/17 20:22:24;;;;;;;;;64.50;53.25;;;;;;;;6489019;39;9621;-57
2022/10/17 20:28:26;;;;;;;;;70.00;56.00;;;;;;;;6489008;46;8869;-60
2022/10/17 20:34:33;;;;;;;;;66.25;54.25;;;;;;;;6487990;39;9017;-58
2022/10/17 20:40:38;;;;;;;;;69.75;54.25;;;;;;;;6487965;46;8913;-59
2022/10/17 20:46:41;;;;;;;;;73.75;57.50;;;;;;;;6488321;46;8883;-59
2022/10/17 20:52:58;;;;;;;;;64.67;54.67;;;;;;;;6489014;39;8937;-58
2022/10/17 20:59:20;;;;;;;;;73.75;58.50;;;;;;;;6490066;31;8922;-59
2022/10/17 21:05:22;;;;;;;;;70.50;57.50;;;;;;;;6489199;39;8958;-58
2022/10/17 21:11:27;;;;;;;;;70.00;56.00;;;;;;;;6488735;39;9130;-59
2022/10/17 21:17:28;;;;;;;;;80.25;62.00;;;;;;;;6489613;31;8967;-61
2022/10/17 21:23:32;;;;;;;;;75.75;61.25;;;;;;;;6488810;39;8871;-59
2022/10/17 21:29:35;;;;;;;;;72.25;57.00;;;;;;;;6488124;39;8957;-59
2022/10/17 21:35:39;;;;;;;;;64.00;51.00;;;;;;;;6487910;47;8908;-59
2022/10/17 21:41:44;;;;;;;;;74.00;58.00;;;;;;;;6488480;39;9736;-59
2022/10/17 21:47:49;;;;;;;;;76.00;58.00;;;;;;;;6488690;31;9491;-59
2022/10/17 21:54:11;;;;;;;;;73.50;58.00;;;;;;;;6489673;39;9549;-59
2022/10/17 22:00:13;;;;;;;;;80.25;61.25;;;;;;;;6490438;39;8923;-58
2022/10/17 22:06:19;;;;;;;;;74.75;58.75;;;;;;;;6489694;31;8965;-58
2022/10/17 22:12:41;;;;;;;;;66.00;52.00;;;;;;;;6489560;46;8896;-59
2022/10/17 22:18:43;;;;;;;;;75.75;60.75;;;;;;;;6490417;39;9013;-58
2022/10/17 22:24:45;;;;;;;;;70.25;57.50;;;;;;;;6489871;31;8976;-60
2022/10/17 22:30:47;;;;;;;;;64.75;53.25;;;;;;;;6490454;39;8909;-59
2022/10/17 22:36:50;;;;;;;;;65.75;54.00;;;;;;;;6490145;31;8882;-59
2022/10/17 22:42:52;;;;;;;;;67.25;55.50;;;;;;;;6489401;39;8982;-59
2022/10/17 22:48:54;;;;;;;;;65.50;55.00;;;;;;;;6488387;39;8931;-57
2022/10/17 22:54:56;;;;;;;;;72.00;58.25;;;;;;;;6488869;46;8914;-58
2022/10/17 23:00:59;;;;;;;;;69.25;56.50;;;;;;;;6490085;39;9539;-59
2022/10/17 23:07:02;;;;;;;;;72.75;57.50;;;;;;;;6489609;39;8906;-58
2022/10/17 23:13:04;;;;;;;;;69.75;55.25;;;;;;;;6490097;39;8863;-59
2022/10/17 23:19:07;;;;;;;;;75.00;59.00;;;;;;;;6488580;46;8986;-59
2022/10/17 23:25:09;;;;;;;;;73.50;60.75;;;;;;;;6489516;39;8982;-59
2022/10/17 23:31:18;;;;;;;;;75.75;60.25;;;;;;;;6489768;31;9002;-59
2022/10/17 23:37:20;;;;;;;;;81.25;62.00;;;;;;;;6488985;46;8895;-59
2022/10/17 23:43:22;;;;;;;;;72.50;58.75;;;;;;;;6489474;31;8914;-60
2022/10/17 23:49:24;;;;;;;;;74.00;58.25;;;;;;;;6489765;39;8871;-58
2022/10/17 23:55:26;;;;;;;;;72.00;55.50;;;;;;;;6489307;39;9565;-58
